Time;durP1;ratioP1;P1;durP2;ratioP2;P2;SDS_P1;SDS_P2;PMS_P1;PMS_P2;Temp;Humidity;BMP_temperature;BMP_pressure;BME280_temperature;BME280_humidity;BME280_pressure;Samples;Min_cycle;Max_cycle;Signal;HPM_P1;HPM_P2
2021/06/10 00:02:15;;;;;;;3.83;3.43;;;13.80;99.90;;;;;;4971434;28;20273;-78
2021/06/10 00:04:42;;;;;;;4.70;3.57;;;13.80;99.90;;;;;;4957376;28;20575;-78
2021/06/10 00:07:08;;;;;;;4.77;3.77;;;13.70;99.90;;;;;;4972619;28;20766;-78
2021/06/10 00:09:35;;;;;;;3.97;3.40;;;13.70;99.90;;;;;;4972727;28;20692;-78
2021/06/10 00:12:02;;;;;;;3.80;3.17;;;13.70;99.90;;;;;;4976246;28;20245;-78
2021/06/10 00:14:28;;;;;;;4.10;3.30;;;13.70;99.90;;;;;;4976817;28;20201;-78
2021/06/10 00:16:56;;;;;;;5.63;3.70;;;13.70;99.90;;;;;;4976479;28;20289;-78
2021/06/10 00:19:26;;;;;;;4.50;3.70;;;13.70;99.90;;;;;;4976352;28;20654;-78
2021/06/10 00:21:52;;;;;;;6.00;3.37;;;13.70;99.90;;;;;;4973381;28;20310;-78
2021/06/10 00:24:18;;;;;;;4.40;4.00;;;13.70;99.90;;;;;;4976601;28;20288;-77
2021/06/10 00:26:45;;;;;;;4.33;3.93;;;13.80;99.90;;;;;;4976835;28;20210;-78
2021/06/10 00:29:11;;;;;;;4.40;3.97;;;13.80;99.90;;;;;;4976152;28;20209;-78
2021/06/10 00:31:38;;;;;;;5.33;4.43;;;13.90;99.90;;;;;;4968058;28;20222;-77
2021/06/10 00:34:06;;;;;;;4.93;4.43;;;13.80;99.90;;;;;;4976203;28;20285;-78
2021/06/10 00:36:32;;;;;;;5.27;4.47;;;13.80;99.90;;;;;;4959438;28;20240;-78
2021/06/10 00:38:59;;;;;;;5.00;4.50;;;13.80;99.90;;;;;;4976382;28;20241;-78
2021/06/10 00:41:29;;;;;;;7.63;4.87;;;13.70;99.90;;;;;;4976000;28;20285;-78
2021/06/10 00:43:55;;;;;;;7.47;4.83;;;13.80;99.90;;;;;;4976494;28;20206;-78
2021/06/10 00:46:22;;;;;;;6.00;5.00;;;13.80;99.90;;;;;;4975328;28;20587;-78
2021/06/10 00:48:48;;;;;;;6.03;4.73;;;13.70;99.90;;;;;;4975779;28;20325;-78
2021/06/10 00:51:16;;;;;;;6.90;5.23;;;13.70;99.90;;;;;;4959144;28;20301;-78
2021/06/10 00:53:42;;;;;;;6.20;4.77;;;13.80;99.90;;;;;;4956566;29;20203;-78
2021/06/10 00:56:11;;;;;;;6.47;5.10;;;13.80;99.90;;;;;;4964054;28;20241;-78
2021/06/10 00:58:38;;;;;;;4.83;4.03;;;13.70;99.90;;;;;;4975468;28;20207;-78
2021/06/10 01:01:05;;;;;;;4.93;4.33;;;13.70;99.90;;;;;;4975783;28;20264;-78
2021/06/10 01:03:32;;;;;;;5.63;3.90;;;13.60;99.90;;;;;;4975937;28;20217;-78
2021/06/10 01:06:03;;;;;;;4.27;3.87;;;13.50;99.90;;;;;;4975748;28;20234;-77
2021/06/10 01:08:40;;;;;;;4.63;4.23;;;13.50;99.90;;;;;;4976170;28;20238;-77
2021/06/10 01:11:16;;;;;;;5.13;4.20;;;13.50;99.90;;;;;;4975695;28;20264;-77
2021/06/10 01:13:57;;;;;;;6.50;4.30;;;13.50;99.90;;;;;;4961177;28;20245;-78
2021/06/10 01:16:29;;;;;;;4.20;3.80;;;13.50;99.90;;;;;;4971978;28;20233;-78
2021/06/10 01:18:58;;;;;;;6.33;4.20;;;13.50;99.90;;;;;;4975839;28;20233;-79
2021/06/10 01:21:25;;;;;;;5.27;4.10;;;13.50;99.90;;;;;;4974883;28;20320;-79
2021/06/10 01:24:13;;;;;;;5.17;4.50;;;13.60;99.90;;;;;;4974702;28;20294;-79
2021/06/10 01:26:52;;;;;;;5.60;4.27;;;13.60;99.90;;;;;;4975672;28;20234;-79
2021/06/10 01:29:22;;;;;;;5.33;4.43;;;13.70;99.90;;;;;;4975115;28;20289;-77
2021/06/10 01:31:49;;;;;;;5.57;4.80;;;13.70;99.90;;;;;;4975489;28;20241;-79
2021/06/10 01:34:17;;;;;;;5.50;4.87;;;13.70;99.90;;;;;;4975402;28;20672;-79
2021/06/10 01:36:46;;;;;;;6.40;5.60;;;13.70;99.90;;;;;;4975552;28;20289;-79
2021/06/10 01:39:24;;;;;;;6.00;5.40;;;13.80;99.90;;;;;;4975080;28;20648;-79
2021/06/10 01:41:51;;;;;;;5.20;4.50;;;13.80;99.90;;;;;;4975310;28;20320;-79
2021/06/10 01:44:21;;;;;;;5.90;4.13;;;13.80;99.90;;;;;;4974832;28;20778;-79
2021/06/10 01:46:50;;;;;;;5.33;4.83;;;13.80;99.90;;;;;;4974533;28;20199;-79
2021/06/10 01:49:17;;;;;;;5.13;4.33;;;13.80;99.90;;;;;;4974715;28;20249;-79
2021/06/10 01:51:45;;;;;;;4.90;4.40;;;13.80;99.90;;;;;;4975252;28;20655;-79
2021/06/10 01:54:15;;;;;;;5.90;4.47;;;13.80;99.90;;;;;;4974702;28;20302;-78
2021/06/10 01:56:43;;;;;;;6.10;4.60;;;13.80;99.90;;;;;;4974894;28;20241;-79
2021/06/10 01:59:10;;;;;;;5.87;5.10;;;13.80;99.90;;;;;;4974802;28;20233;-78
2021/06/10 02:01:40;;;;;;;7.03;5.10;;;13.80;99.90;;;;;;4975019;28;20630;-79
2021/06/10 02:04:08;;;;;;;6.30;5.07;;;13.80;99.90;;;;;;4974527;28;20233;-79
2021/06/10 02:06:36;;;;;;;6.07;5.47;;;13.80;99.90;;;;;;4974721;28;20213;-79
2021/06/10 02:09:05;;;;;;;7.03;4.83;;;13.80;99.90;;;;;;4974776;28;20206;-79
2021/06/10 02:11:33;;;;;;;7.37;4.63;;;13.80;99.90;;;;;;4974866;28;20305;-78
2021/06/10 02:13:59;;;;;;;5.93;4.83;;;13.80;99.90;;;;;;4974680;28;20214;-79
2021/06/10 02:16:27;;;;;;;7.30;5.70;;;13.80;99.90;;;;;;4974381;28;20313;-79
2021/06/10 02:18:55;;;;;;;5.90;5.20;;;13.90;99.90;;;;;;4974378;28;20198;-79
2021/06/10 02:21:21;;;;;;;9.40;4.93;;;13.90;99.90;;;;;;4973951;28;20308;-79
2021/06/10 02:23:49;;;;;;;5.23;4.60;;;13.80;99.90;;;;;;4974245;28;20253;-79
2021/06/10 02:26:16;;;;;;;5.73;5.13;;;13.80;99.90;;;;;;4959825;28;20203;-79
2021/06/10 02:28:43;;;;;;;7.43;5.37;;;13.70;99.90;;;;;;4961129;28;20285;-79
2021/06/10 02:31:11;;;;;;;6.97;5.30;;;13.70;99.90;;;;;;4974545;28;20235;-79
2021/06/10 02:33:40;;;;;;;6.00;5.17;;;13.70;99.90;;;;;;4974107;28;20265;-79
2021/06/10 02:36:10;;;;;;;7.07;5.23;;;13.70;99.90;;;;;;4973336;28;20691;-79
2021/06/10 02:38:40;;;;;;;6.57;5.43;;;13.70;99.90;;;;;;4974397;28;20661;-79
2021/06/10 02:41:07;;;;;;;6.83;5.27;;;13.60;99.90;;;;;;4974111;28;20242;-79
2021/06/10 02:43:34;;;;;;;6.47;5.77;;;13.60;99.90;;;;;;4973208;28;20237;-79
2021/06/10 02:46:01;;;;;;;8.83;6.03;;;13.60;99.90;;;;;;4974054;28;20250;-79
2021/06/10 02:48:29;;;;;;;6.57;5.70;;;13.60;99.90;;;;;;4970368;28;20301;-79
2021/06/10 02:50:57;;;;;;;6.20;5.60;;;13.50;99.90;;;;;;4956719;28;20232;-79
2021/06/10 02:53:27;;;;;;;6.60;5.90;;;13.60;99.90;;;;;;4973685;28;20692;-79
2021/06/10 02:55:55;;;;;;;7.00;6.00;;;13.60;99.90;;;;;;4973469;28;20238;-79
2021/06/10 02:58:23;;;;;;;6.43;5.77;;;13.60;99.90;;;;;;4966473;28;20285;-79
2021/06/10 03:00:50;;;;;;;6.60;5.90;;;13.60;99.90;;;;;;4956763;28;20719;-79
2021/06/10 03:03:17;;;;;;;7.47;6.23;;;13.70;99.90;;;;;;4967694;28;20743;-79
2021/06/10 03:05:45;;;;;;;7.47;5.83;;;13.70;99.90;;;;;;4970630;28;20198;-79
2021/06/10 03:08:13;;;;;;;8.10;6.40;;;13.80;99.90;;;;;;4968727;28;20598;-79
2021/06/10 03:10:44;;;;;;;8.30;6.43;;;13.80;99.90;;;;;;4973396;28;20207;-79
2021/06/10 03:13:11;;;;;;;7.80;7.00;;;13.80;99.90;;;;;;4973454;28;20230;-78
2021/06/10 03:15:39;;;;;;;8.37;7.10;;;13.80;99.90;;;;;;4973572;28;20202;-79
2021/06/10 03:18:06;;;;;;;8.67;6.20;;;13.80;99.90;;;;;;4973520;28;20206;-79
2021/06/10 03:20:33;;;;;;;8.83;6.50;;;13.80;99.90;;;;;;4973372;28;20257;-79
2021/06/10 03:23:00;;;;;;;7.07;6.00;;;13.80;99.90;;;;;;4966118;28;20260;-79
2021/06/10 03:25:27;;;;;;;7.53;6.67;;;13.80;99.90;;;;;;4963961;28;20706;-79
2021/06/10 03:27:55;;;;;;;7.10;6.30;;;13.90;99.90;;;;;;4954010;29;20253;-79
2021/06/10 03:30:22;;;;;;;9.13;6.80;;;13.90;99.90;;;;;;4970193;28;20657;-79
2021/06/10 03:32:51;;;;;;;9.17;7.10;;;13.90;99.90;;;;;;4964570;28;20205;-79
2021/06/10 03:35:18;;;;;;;7.67;6.57;;;13.90;99.90;;;;;;4953572;28;20290;-79
2021/06/10 03:37:46;;;;;;;8.00;7.20;;;13.90;99.90;;;;;;4954177;29;20290;-79
2021/06/10 03:40:15;;;;;;;7.57;6.77;;;13.90;99.90;;;;;;4953341;29;20808;-79
2021/06/10 03:42:42;;;;;;;9.43;7.23;;;13.90;99.90;;;;;;4953731;29;20263;-79
2021/06/10 03:45:13;;;;;;;7.17;6.43;;;13.80;99.90;;;;;;4953269;28;20239;-79
2021/06/10 03:47:44;;;;;;;8.80;6.80;;;13.90;99.90;;;;;;4954533;28;20202;-79
2021/06/10 03:50:11;;;;;;;7.57;6.07;;;13.90;99.90;;;;;;4969082;28;20630;-79
2021/06/10 03:52:38;;;;;;;8.13;7.37;;;13.90;99.90;;;;;;4969610;28;20676;-86
2021/06/10 03:55:07;;;;;;;10.43;6.63;;;13.90;99.90;;;;;;4972694;28;20222;-85
2021/06/10 03:57:34;;;;;;;8.17;7.20;;;13.80;99.90;;;;;;4972968;28;20202;-86
2021/06/10 04:00:02;;;;;;;8.60;7.10;;;13.90;99.90;;;;;;4973377;28;20234;-85
2021/06/10 04:02:30;;;;;;;7.87;6.60;;;13.90;99.90;;;;;;4972450;28;20226;-85
2021/06/10 04:04:56;;;;;;;8.20;6.90;;;14.00;99.90;;;;;;4973267;28;20657;-86
2021/06/10 04:07:23;;;;;;;7.30;6.60;;;14.10;99.90;;;;;;4960564;28;20238;-85
2021/06/10 04:09:49;;;;;;;8.33;7.30;;;14.10;99.90;;;;;;4972976;28;20729;-86
2021/06/10 04:12:16;;;;;;;8.17;7.20;;;14.10;99.90;;;;;;4973401;28;20289;-86
2021/06/10 04:14:42;;;;;;;9.50;7.50;;;14.20;99.90;;;;;;4972557;28;20237;-86
2021/06/10 04:17:09;;;;;;;8.87;7.00;;;14.20;99.90;;;;;;4973270;28;20631;-86
2021/06/10 04:19:37;;;;;;;11.23;7.40;;;14.20;99.90;;;;;;4972666;28;20589;-86
2021/06/10 04:22:03;;;;;;;12.40;7.37;;;14.30;99.90;;;;;;4973281;28;20357;-86
2021/06/10 04:24:30;;;;;;;9.67;7.20;;;14.30;99.90;;;;;;4972949;28;20222;-85
2021/06/10 04:26:56;;;;;;;8.50;7.10;;;14.40;99.90;;;;;;4971720;28;20226;-86
2021/06/10 04:29:23;;;;;;;8.33;6.83;;;14.40;99.90;;;;;;4973111;28;20238;-87
2021/06/10 04:31:49;;;;;;;7.67;6.93;;;14.40;99.90;;;;;;4972716;28;20293;-86
2021/06/10 04:34:16;;;;;;;7.47;6.77;;;14.40;99.90;;;;;;4973017;28;20293;-86
2021/06/10 04:36:44;;;;;;;10.97;7.27;;;14.40;99.90;;;;;;4964482;28;20227;-86
2021/06/10 04:39:10;;;;;;;9.30;6.57;;;14.40;99.90;;;;;;4954539;28;20231;-86
2021/06/10 04:41:37;;;;;;;7.93;6.47;;;14.40;99.90;;;;;;4972064;28;20229;-86
2021/06/10 04:44:04;;;;;;;7.63;6.60;;;14.30;99.90;;;;;;4965904;28;20291;-84
2021/06/10 04:46:32;;;;;;;8.73;6.87;;;14.30;99.90;;;;;;4953684;28;20285;-85
2021/06/10 04:48:59;;;;;;;8.20;6.63;;;14.30;99.90;;;;;;4964439;28;20226;-85
2021/06/10 04:51:26;;;;;;;10.17;7.07;;;14.40;99.90;;;;;;4972559;28;20673;-85
2021/06/10 04:53:54;;;;;;;7.40;6.60;;;14.40;99.90;;;;;;4972383;28;20229;-85
2021/06/10 04:56:20;;;;;;;8.13;7.30;;;14.50;99.90;;;;;;4973262;28;20198;-85
2021/06/10 04:58:47;;;;;;;8.00;6.83;;;14.50;99.90;;;;;;4973819;28;20207;-86
2021/06/10 05:01:13;;;;;;;9.73;6.90;;;14.50;99.90;;;;;;4958680;28;20226;-85
2021/06/10 05:03:40;;;;;;;7.77;6.97;;;14.60;99.90;;;;;;4976277;28;20230;-85
2021/06/10 05:06:06;;;;;;;7.80;7.00;;;14.60;99.90;;;;;;4976083;28;20206;-87
2021/06/10 05:08:33;;;;;;;8.83;7.40;;;14.60;99.90;;;;;;4965054;28;20211;-86
2021/06/10 05:11:01;;;;;;;15.57;7.73;;;14.60;99.90;;;;;;4967138;28;20222;-87
2021/06/10 05:13:28;;;;;;;8.90;6.87;;;14.70;99.90;;;;;;4977267;28;20209;-89
2021/06/10 05:15:54;;;;;;;8.10;7.30;;;14.90;99.90;;;;;;4978288;28;20202;-89
2021/06/10 05:18:21;;;;;;;8.60;6.97;;;15.00;99.90;;;;;;4978287;28;20203;-88
2021/06/10 05:20:48;;;;;;;8.50;7.50;;;15.20;99.90;;;;;;4976840;28;20585;-88
2021/06/10 05:23:15;;;;;;;8.70;7.13;;;15.30;99.90;;;;;;4976367;28;20313;-84
2021/06/10 05:25:41;;;;;;;7.53;6.63;;;15.40;99.90;;;;;;4967595;28;20645;-83
2021/06/10 05:28:09;;;;;;;8.00;6.83;;;15.70;99.90;;;;;;4956173;29;20308;-84
2021/06/10 05:30:36;;;;;;;7.90;6.80;;;15.80;99.90;;;;;;4965708;28;20238;-87
2021/06/10 05:33:02;;;;;;;7.70;6.90;;;15.90;99.90;;;;;;4969718;28;20637;-85
2021/06/10 05:35:29;;;;;;;7.43;6.63;;;16.00;99.90;;;;;;4965254;28;20222;-84
2021/06/10 05:37:55;;;;;;;8.17;6.80;;;16.20;99.90;;;;;;4974849;28;20199;-84
2021/06/10 05:40:21;;;;;;;7.60;6.60;;;16.10;99.90;;;;;;4960645;28;20237;-84
2021/06/10 05:42:48;;;;;;;7.57;6.20;;;16.30;99.90;;;;;;4990058;28;20257;-83
2021/06/10 05:45:16;;;;;;;7.27;6.43;;;16.40;99.90;;;;;;4973465;28;20307;-85
2021/06/10 05:47:42;;;;;;;7.07;6.37;;;16.40;99.90;;;;;;4973834;28;20268;-84
2021/06/10 05:50:10;;;;;;;7.40;6.50;;;16.30;99.90;;;;;;4972303;28;20269;-85
2021/06/10 05:52:38;;;;;;;7.83;7.03;;;16.10;99.90;;;;;;4958499;28;20583;-84
2021/06/10 05:55:06;;;;;;;7.80;7.00;;;16.00;99.90;;;;;;4955924;29;20281;-84
2021/06/10 05:57:33;;;;;;;8.20;6.43;;;16.00;99.90;;;;;;4979383;28;20584;-84
2021/06/10 05:59:59;;;;;;;8.07;6.30;;;16.00;99.90;;;;;;4986093;28;20278;-84
2021/06/10 06:02:27;;;;;;;7.93;7.13;;;16.00;99.90;;;;;;4958035;28;20274;-84
2021/06/10 06:04:54;;;;;;;7.30;6.60;;;15.90;99.90;;;;;;4969372;28;20654;-84
2021/06/10 06:07:20;;;;;;;8.00;6.57;;;15.90;99.90;;;;;;4973180;28;20905;-84
2021/06/10 06:09:47;;;;;;;7.70;6.47;;;15.90;99.90;;;;;;4973049;28;20203;-84
2021/06/10 06:12:15;;;;;;;9.10;6.50;;;16.00;99.90;;;;;;4973910;28;20273;-84
2021/06/10 06:14:44;;;;;;;7.43;6.60;;;16.10;99.90;;;;;;4958550;28;20720;-83
2021/06/10 06:17:13;;;;;;;6.93;6.23;;;16.30;99.90;;;;;;4958424;28;20288;-83
2021/06/10 06:19:41;;;;;;;7.07;6.33;;;16.40;99.90;;;;;;4964285;28;20286;-83
2021/06/10 06:22:09;;;;;;;9.93;6.87;;;16.60;99.90;;;;;;4954413;28;20227;-83
2021/06/10 06:24:36;;;;;;;7.30;6.53;;;16.60;99.90;;;;;;4973092;28;20337;-84
2021/06/10 06:27:03;;;;;;;7.97;6.47;;;16.60;99.90;;;;;;4960254;28;20222;-83
2021/06/10 06:29:29;;;;;;;8.03;6.90;;;16.70;99.90;;;;;;4973880;28;20751;-84
2021/06/10 06:31:56;;;;;;;7.73;6.90;;;16.80;99.90;;;;;;4962786;28;20238;-84
2021/06/10 06:34:22;;;;;;;7.40;6.50;;;16.90;99.90;;;;;;4964025;28;20628;-83
2021/06/10 06:36:50;;;;;;;8.20;7.03;;;16.90;99.90;;;;;;4961235;28;20199;-83
2021/06/10 06:39:17;;;;;;;6.63;5.93;;;16.90;99.90;;;;;;4969985;28;20237;-83
2021/06/10 06:41:43;;;;;;;6.97;6.20;;;17.00;99.90;;;;;;4970900;28;20642;-83
2021/06/10 06:44:10;;;;;;;6.83;6.13;;;17.00;99.90;;;;;;4970311;28;20672;-83
2021/06/10 06:46:37;;;;;;;6.97;6.00;;;17.00;99.90;;;;;;4972194;28;20198;-83
2021/06/10 06:49:04;;;;;;;6.63;5.93;;;17.10;99.90;;;;;;4960374;28;20240;-84
2021/06/10 06:51:30;;;;;;;7.17;6.47;;;17.20;99.90;;;;;;4965329;28;20650;-85
2021/06/10 06:53:58;;;;;;;6.40;5.80;;;17.30;99.90;;;;;;4968957;28;20202;-86
2021/06/10 06:56:25;;;;;;;6.27;5.47;;;17.30;99.90;;;;;;4963421;28;20210;-84
2021/06/10 06:58:52;;;;;;;6.33;5.73;;;17.50;99.90;;;;;;4969713;28;20245;-86
2021/06/10 07:01:18;;;;;;;6.00;5.40;;;17.60;99.90;;;;;;4967178;28;20214;-86
2021/06/10 07:03:45;;;;;;;6.07;5.47;;;17.80;99.90;;;;;;4961508;28;20306;-86
2021/06/10 07:06:12;;;;;;;6.37;5.77;;;18.10;99.90;;;;;;4962827;28;20204;-86
2021/06/10 07:08:38;;;;;;;6.13;5.53;;;18.20;99.90;;;;;;4967929;28;20242;-87
2021/06/10 07:11:06;;;;;;;5.43;4.87;;;18.30;99.90;;;;;;4964807;28;20944;-87
2021/06/10 07:13:33;;;;;;;9.63;4.63;;;18.40;99.90;;;;;;4971705;28;20202;-87
2021/06/10 07:16:00;;;;;;;8.93;4.60;;;18.50;99.90;;;;;;4968034;28;20677;-87
2021/06/10 07:18:26;;;;;;;4.60;4.20;;;18.60;99.90;;;;;;4961167;28;20210;-87
2021/06/10 07:20:54;;;;;;;4.93;4.43;;;18.30;99.90;;;;;;4971412;28;20233;-87
2021/06/10 07:23:20;;;;;;;5.63;4.47;;;18.70;99.90;;;;;;4962573;28;20246;-86
2021/06/10 07:25:47;;;;;;;4.53;3.90;;;18.60;99.90;;;;;;4959276;28;20592;-87
2021/06/10 07:28:15;;;;;;;4.70;3.90;;;18.50;99.90;;;;;;4959482;28;20195;-87
2021/06/10 07:30:41;;;;;;;4.57;4.17;;;18.50;99.90;;;;;;4970029;28;20648;-86
2021/06/10 07:33:08;;;;;;;5.33;4.70;;;18.50;99.90;;;;;;4967764;28;20294;-87
2021/06/10 07:35:35;;;;;;;5.57;5.07;;;18.30;99.90;;;;;;4970802;28;20229;-87
2021/06/10 07:38:04;;;;;;;4.83;4.30;;;18.50;99.90;;;;;;4965036;28;20211;-84
2021/06/10 07:40:32;;;;;;;4.80;4.40;;;18.80;99.90;;;;;;4961640;28;20882;-83
2021/06/10 07:43:00;;;;;;;5.20;4.70;;;18.80;99.90;;;;;;4960234;28;20305;-85
2021/06/10 07:45:29;;;;;;;4.90;4.37;;;19.50;99.90;;;;;;4965755;28;20194;-86
2021/06/10 07:47:56;;;;;;;5.10;4.60;;;19.60;99.90;;;;;;4961966;28;20274;-85
2021/06/10 07:50:23;;;;;;;3.92;3.53;;;20.10;99.90;;;;;;4960683;28;20316;-86
2021/06/10 07:52:49;;;;;;;4.43;4.03;;;20.40;99.90;;;;;;4956896;28;20631;-86
2021/06/10 07:55:16;;;;;;;5.70;3.50;;;20.60;99.90;;;;;;4960271;28;20226;-86
2021/06/10 07:57:42;;;;;;;3.30;3.00;;;21.40;99.90;;;;;;4965806;28;20232;-86
2021/06/10 08:00:11;;;;;;;3.42;3.05;;;22.20;99.90;;;;;;4960403;28;20680;-86
2021/06/10 08:02:38;;;;;;;3.25;2.80;;;21.90;99.90;;;;;;4959096;28;20250;-86
2021/06/10 08:05:06;;;;;;;3.17;2.88;;;21.50;99.90;;;;;;4964524;28;20241;-86
2021/06/10 08:07:33;;;;;;;3.03;2.72;;;21.40;99.90;;;;;;4954951;28;20647;-86
2021/06/10 08:10:00;;;;;;;6.05;2.08;;;21.10;99.90;;;;;;4960743;28;20206;-86
2021/06/10 08:12:26;;;;;;;3.03;2.10;;;21.60;99.90;;;;;;4958172;28;20691;-86
2021/06/10 08:14:53;;;;;;;2.55;2.20;;;22.10;99.90;;;;;;4950072;28;20938;-86
2021/06/10 08:17:19;;;;;;;2.47;2.20;;;22.00;99.90;;;;;;4956132;28;20282;-86
2021/06/10 08:19:47;;;;;;;3.33;1.85;;;22.10;99.90;;;;;;4967847;28;20591;-87
2021/06/10 08:22:14;;;;;;;5.78;2.58;;;22.00;99.90;;;;;;4962354;28;20223;-86
2021/06/10 08:24:40;;;;;;;8.65;3.00;;;22.30;99.90;;;;;;4969047;28;20286;-87
2021/06/10 08:27:08;;;;;;;4.93;1.95;;;22.30;99.90;;;;;;4966978;28;20278;-86
2021/06/10 08:29:35;;;;;;;5.60;2.78;;;22.60;99.90;;;;;;4968604;28;20248;-86
2021/06/10 08:32:02;;;;;;;4.43;3.08;;;22.60;99.90;;;;;;4968585;28;20213;-86
2021/06/10 08:34:29;;;;;;;4.25;3.85;;;22.40;99.90;;;;;;4974915;28;20293;-86
2021/06/10 08:36:56;;;;;;;4.20;3.28;;;21.80;99.90;;;;;;4958435;28;20772;-87
2021/06/10 08:39:23;;;;;;;4.13;3.35;;;22.00;99.90;;;;;;4958185;28;20375;-86
2021/06/10 08:41:49;;;;;;;4.60;3.67;;;22.20;99.90;;;;;;4964616;28;20626;-86
2021/06/10 08:44:16;;;;;;;4.93;4.40;;;22.10;99.90;;;;;;4947856;29;20226;-86
2021/06/10 08:46:44;;;;;;;4.63;3.63;;;21.50;99.90;;;;;;4966820;28;20250;-86
2021/06/10 08:49:14;;;;;;;5.20;3.75;;;21.80;99.90;;;;;;4958972;28;20239;-86
2021/06/10 08:51:40;;;;;;;4.32;3.83;;;21.60;99.90;;;;;;4963822;28;20742;-87
2021/06/10 08:54:08;;;;;;;5.20;4.68;;;21.60;99.90;;;;;;4960616;28;20241;-85
2021/06/10 08:56:34;;;;;;;5.10;4.60;;;22.00;99.90;;;;;;4966885;28;20694;-86
2021/06/10 08:59:01;;;;;;;5.57;4.70;;;21.60;99.90;;;;;;4956436;28;20588;-87
2021/06/10 09:01:29;;;;;;;5.15;4.70;;;21.50;99.90;;;;;;4950623;29;20210;-86
2021/06/10 09:03:56;;;;;;;6.40;5.10;;;21.40;99.90;;;;;;4970364;28;20227;-86
2021/06/10 09:06:23;;;;;;;9.38;5.72;;;21.50;99.90;;;;;;4958037;28;20256;-86
2021/06/10 09:08:56;;;;;;;6.43;5.00;;;22.00;99.90;;;;;;4957207;28;20302;-86
2021/06/10 09:11:26;;;;;;;6.28;5.68;;;24.10;99.90;;;;;;4958239;29;20241;-88
2021/06/10 09:13:55;;;;;;;5.60;4.45;;;24.70;99.90;;;;;;4967137;28;20649;-87
2021/06/10 09:16:25;;;;;;;4.53;3.85;;;25.60;99.90;;;;;;4978346;28;20467;-87
2021/06/10 09:18:54;;;;;;;4.15;3.45;;;25.60;99.90;;;;;;4964161;28;20207;-87
2021/06/10 09:21:25;;;;;;;9.38;3.65;;;25.80;99.90;;;;;;4961960;28;20199;-86
2021/06/10 09:23:51;;;;;;;11.77;3.72;;;26.90;99.90;;;;;;4966369;28;20663;-88
2021/06/10 09:26:18;;;;;;;5.72;3.97;;;27.70;99.90;;;;;;4971921;28;20244;-87
2021/06/10 09:28:51;;;;;;;4.03;3.20;;;27.20;99.90;;;;;;4962293;28;20298;-87
2021/06/10 09:31:31;;;;;;;2.80;2.58;;;27.00;99.90;;;;;;4970423;28;20233;-86
2021/06/10 09:33:59;;;;;;;3.75;2.60;;;27.50;99.90;;;;;;4974764;28;20226;-86
2021/06/10 09:36:25;;;;;;;6.00;2.90;;;27.50;99.90;;;;;;4969920;28;20207;-84
2021/06/10 09:39:07;;;;;;;3.80;3.00;;;27.40;99.90;;;;;;4972455;28;20205;-83
2021/06/10 09:41:34;;;;;;;4.00;2.08;;;27.50;99.90;;;;;;4974273;28;20285;-82
2021/06/10 09:44:02;;;;;;;3.05;2.30;;;28.30;99.90;;;;;;4972742;28;20325;-82
2021/06/10 09:46:29;;;;;;;2.10;1.90;;;28.60;99.90;;;;;;4975872;28;20286;-84
2021/06/10 09:49:05;;;;;;;2.70;2.00;;;29.40;99.90;;;;;;4952774;29;20235;-84
2021/06/10 09:51:32;;;;;;;3.28;2.05;;;28.80;99.90;;;;;;4968433;28;20241;-84
2021/06/10 09:53:59;;;;;;;2.10;1.58;;;28.50;99.90;;;;;;4968080;28;20631;-84
2021/06/10 09:56:26;;;;;;;1.95;1.60;;;26.80;99.90;;;;;;4957564;28;20207;-84
2021/06/10 09:58:57;;;;;;;3.13;1.90;;;25.60;99.90;;;;;;4967324;28;20262;-84
2021/06/10 10:01:26;;;;;;;2.47;2.20;;;25.70;99.90;;;;;;4957063;29;20203;-83
2021/06/10 10:03:53;;;;;;;2.33;2.10;;;26.50;99.90;;;;;;4957107;28;20260;-83
2021/06/10 10:06:22;;;;;;;3.15;2.47;;;27.00;99.90;;;;;;4966299;28;20214;-83
2021/06/10 10:08:52;;;;;;;2.30;1.90;;;26.60;99.90;;;;;;4968713;28;20205;-82
2021/06/10 10:11:20;;;;;;;2.95;1.90;;;26.90;99.90;;;;;;4958311;28;20211;-82
2021/06/10 10:13:48;;;;;;;2.58;1.50;;;28.30;99.90;;;;;;4960847;28;20295;-82
2021/06/10 10:16:15;;;;;;;2.33;2.13;;;29.40;99.90;;;;;;4948413;29;20249;-83
2021/06/10 10:18:45;;;;;;;3.10;2.20;;;29.50;99.90;;;;;;4967799;28;20226;-84
2021/06/10 10:21:12;;;;;;;2.10;1.90;;;29.10;99.90;;;;;;4960643;28;20688;-83
2021/06/10 10:23:38;;;;;;;2.08;1.52;;;30.30;99.90;;;;;;4963239;28;20223;-83
2021/06/10 10:26:06;;;;;;;2.72;1.60;;;30.80;99.90;;;;;;4965177;28;20246;-83
2021/06/10 10:28:35;;;;;;;3.47;1.92;;;30.80;99.90;;;;;;4968841;28;20646;-83
2021/06/10 10:31:03;;;;;;;2.97;2.65;;;30.70;99.90;;;;;;4966845;28;20233;-84
2021/06/10 10:33:30;;;;;;;2.65;2.10;;;30.30;99.90;;;;;;4971425;28;20238;-85
2021/06/10 10:36:00;;;;;;;1.75;1.65;;;31.20;99.90;;;;;;4969783;28;20203;-85
2021/06/10 10:38:32;;;;;;;2.50;1.92;;;32.20;99.90;;;;;;4963576;28;20283;-85
2021/06/10 10:41:01;;;;;;;2.53;2.10;;;31.60;99.90;;;;;;4944351;28;20207;-85
2021/06/10 10:43:30;;;;;;;2.95;2.63;;;32.60;99.90;;;;;;4964428;28;20253;-85
2021/06/10 10:46:10;;;;;;;3.15;2.60;;;30.50;99.90;;;;;;4963076;28;20203;-85
2021/06/10 10:48:38;;;;;;;2.40;2.20;;;29.50;99.90;;;;;;4962910;28;20245;-84
2021/06/10 10:51:27;;;;;;;2.33;2.13;;;30.90;99.90;;;;;;4966413;28;20202;-85
2021/06/10 10:53:56;;;;;;;2.17;1.98;;;32.60;99.90;;;;;;4966378;28;20199;-84
2021/06/10 10:56:35;;;;;;;2.15;1.88;;;33.30;99.90;;;;;;4966025;28;20207;-82
2021/06/10 10:59:15;;;;;;;2.10;1.90;;;32.80;99.90;;;;;;4975191;28;20198;-86
2021/06/10 11:02:00;;;;;;;3.72;2.22;;;31.10;99.90;;;;;;4959625;28;20199;-88
2021/06/10 11:04:50;;;;;;;2.13;2.00;;;29.00;99.90;;;;;;4969656;28;20746;-83
2021/06/10 11:07:51;;;;;;;2.33;2.08;;;27.50;99.90;;;;;;4959306;28;20207;-85
2021/06/10 11:10:57;;;;;;;3.70;1.98;;;28.00;99.90;;;;;;4950705;28;20198;-85
2021/06/10 11:13:27;;;;;;;3.40;1.70;;;27.80;99.90;;;;;;4965649;28;20198;-85
2021/06/10 11:15:56;;;;;;;1.65;1.50;;;28.30;99.90;;;;;;4973978;28;20206;-85
2021/06/10 11:18:46;;;;;;;2.70;1.50;;;28.50;99.90;;;;;;4974635;28;20203;-85
2021/06/10 11:21:16;;;;;;;2.95;1.80;;;30.30;99.90;;;;;;4974464;28;20203;-86
2021/06/10 11:24:12;;;;;;;1.83;1.55;;;30.30;99.90;;;;;;4974581;28;20312;-85
2021/06/10 11:26:48;;;;;;;1.50;1.40;;;30.60;99.90;;;;;;4974286;28;20685;-84
2021/06/10 11:29:16;;;;;;;1.73;1.60;;;31.50;99.90;;;;;;4968444;28;20218;-85
2021/06/10 11:31:43;;;;;;;3.40;2.20;;;29.30;99.90;;;;;;4964794;28;20203;-85
2021/06/10 11:34:31;;;;;;;2.90;1.50;;;28.40;99.90;;;;;;4972130;28;20731;-85
2021/06/10 11:36:57;;;;;;;1.50;1.40;;;30.30;99.90;;;;;;4959349;28;20248;-85
2021/06/10 11:39:29;;;;;;;1.73;1.63;;;31.10;99.90;;;;;;4964805;28;20246;-86
2021/06/10 11:42:06;;;;;;;2.25;1.50;;;31.60;99.90;;;;;;4966437;28;20578;-86
2021/06/10 11:44:44;;;;;;;2.47;1.55;;;34.20;99.90;;;;;;4974936;28;20210;-86
2021/06/10 11:47:25;;;;;;;1.85;1.70;;;34.40;99.90;;;;;;4975324;28;20194;-87
2021/06/10 11:49:52;;;;;;;3.50;2.00;;;33.10;99.90;;;;;;4974721;28;20252;-86
2021/06/10 11:52:18;;;;;;;1.80;1.70;;;30.40;99.90;;;;;;4974654;28;20297;-87
2021/06/10 11:55:02;;;;;;;2.85;1.58;;;29.40;99.90;;;;;;4974724;28;20277;-86
2021/06/10 11:57:29;;;;;;;2.17;1.45;;;29.40;99.90;;;;;;4957675;28;20210;-87
2021/06/10 11:59:57;;;;;;;3.22;1.77;;;31.50;99.90;;;;;;4968556;28;20229;-87
2021/06/10 12:02:25;;;;;;;2.28;1.70;;;31.20;99.90;;;;;;4965032;28;20233;-85
2021/06/10 12:05:07;;;;;;;2.67;1.80;;;31.10;99.90;;;;;;4962781;28;21681;-87
2021/06/10 12:07:33;;;;;;;2.10;1.88;;;30.00;99.90;;;;;;4971610;28;20671;-86
2021/06/10 12:10:07;;;;;;;2.03;1.63;;;29.30;99.90;;;;;;4973084;28;20191;-86
2021/06/10 12:12:35;;;;;;;2.38;1.77;;;28.70;99.90;;;;;;4967590;28;20202;-86
2021/06/10 12:15:03;;;;;;;1.90;1.60;;;28.50;99.90;;;;;;4963918;28;20226;-86
2021/06/10 12:17:29;;;;;;;2.17;1.70;;;28.00;99.90;;;;;;4969997;28;20226;-85
2021/06/10 12:20:14;;;;;;;1.75;1.60;;;29.80;99.90;;;;;;4962388;28;20258;-85
2021/06/10 12:22:43;;;;;;;6.25;1.92;;;30.20;99.90;;;;;;4974113;28;20668;-84
2021/06/10 12:25:16;;;;;;;1.77;1.67;;;31.70;99.90;;;;;;4972878;28;20345;-86
2021/06/10 12:27:42;;;;;;;1.85;1.60;;;32.00;99.90;;;;;;4967264;28;20275;-86
2021/06/10 12:30:35;;;;;;;1.92;1.75;;;33.20;99.90;;;;;;4958953;28;20223;-86
2021/06/10 12:33:15;;;;;;;2.20;1.67;;;34.50;99.90;;;;;;4965840;28;20673;-84
2021/06/10 12:35:45;;;;;;;2.00;1.77;;;32.20;99.90;;;;;;4967127;28;20213;-85
2021/06/10 12:38:13;;;;;;;2.10;1.67;;;33.20;99.90;;;;;;4971051;28;20306;-84
2021/06/10 12:40:41;;;;;;;2.75;1.80;;;32.30;99.90;;;;;;4963594;28;20207;-84
2021/06/10 12:43:13;;;;;;;1.80;1.60;;;31.90;99.90;;;;;;4976805;28;20217;-84
2021/06/10 12:45:41;;;;;;;1.70;1.60;;;32.30;99.90;;;;;;4977821;28;20198;-84
2021/06/10 12:48:26;;;;;;;2.00;1.80;;;32.50;99.90;;;;;;4977938;28;20585;-85
2021/06/10 12:51:18;;;;;;;2.85;1.73;;;32.80;99.90;;;;;;4963040;28;20203;-85
2021/06/10 12:54:12;;;;;;;2.20;1.92;;;34.00;99.90;;;;;;4955344;28;20234;-84
2021/06/10 12:56:48;;;;;;;2.33;1.80;;;33.10;99.90;;;;;;4953373;28;20207;-84